sensor_id;sensor_type;location;lat;lon;timestamp;P1;durP1;ratioP1;P2;durP2;ratioP2
46355;SDS011;32066;49.474;11.106;2024-01-30T00:01:15;14.10;;;7.85;;
46355;SDS011;32066;49.474;11.106;2024-01-30T00:03:44;10.95;;;6.90;;
46355;SDS011;32066;49.474;11.106;2024-01-30T00:06:13;13.52;;;7.55;;
46355;SDS011;32066;49.474;11.106;2024-01-30T00:08:41;13.50;;;7.07;;
46355;SDS011;32066;49.474;11.106;2024-01-30T00:11:14;12.95;;;6.88;;
46355;SDS011;32066;49.474;11.106;2024-01-30T00:13:43;14.02;;;6.85;;
46355;SDS011;32066;49.474;11.106;2024-01-30T00:16:20;14.05;;;7.65;;
46355;SDS011;32066;49.474;11.106;2024-01-30T00:18:49;13.70;;;7.00;;
46355;SDS011;32066;49.474;11.106;2024-01-30T00:21:18;12.77;;;7.57;;
46355;SDS011;32066;49.474;11.106;2024-01-30T00:23:47;11.38;;;6.25;;
46355;SDS011;32066;49.474;11.106;2024-01-30T00:26:18;14.23;;;6.72;;
46355;SDS011;32066;49.474;11.106;2024-01-30T00:28:47;14.73;;;7.97;;
46355;SDS011;32066;49.474;11.106;2024-01-30T00:31:16;10.88;;;6.43;;
46355;SDS011;32066;49.474;11.106;2024-01-30T00:33:44;11.95;;;6.97;;
46355;SDS011;32066;49.474;11.106;2024-01-30T00:36:13;10.85;;;6.63;;
46355;SDS011;32066;49.474;11.106;2024-01-30T00:38:41;12.05;;;7.10;;
46355;SDS011;32066;49.474;11.106;2024-01-30T00:41:10;12.68;;;6.63;;
46355;SDS011;32066;49.474;11.106;2024-01-30T00:43:41;14.30;;;7.00;;
46355;SDS011;32066;49.474;11.106;2024-01-30T00:46:10;12.65;;;6.30;;
46355;SDS011;32066;49.474;11.106;2024-01-30T00:48:38;12.02;;;6.78;;
46355;SDS011;32066;49.474;11.106;2024-01-30T00:51:07;11.57;;;6.25;;
46355;SDS011;32066;49.474;11.106;2024-01-30T00:53:36;13.52;;;6.47;;
46355;SDS011;32066;49.474;11.106;2024-01-30T00:56:04;10.90;;;6.22;;
46355;SDS011;32066;49.474;11.106;2024-01-30T00:58:34;13.60;;;6.28;;
46355;SDS011;32066;49.474;11.106;2024-01-30T01:01:05;13.90;;;7.03;;
46355;SDS011;32066;49.474;11.106;2024-01-30T01:03:34;14.85;;;6.30;;
46355;SDS011;32066;49.474;11.106;2024-01-30T01:06:03;10.52;;;6.25;;
46355;SDS011;32066;49.474;11.106;2024-01-30T01:08:32;11.48;;;6.75;;
46355;SDS011;32066;49.474;11.106;2024-01-30T01:11:00;12.10;;;6.70;;
46355;SDS011;32066;49.474;11.106;2024-01-30T01:13:29;12.77;;;6.70;;
46355;SDS011;32066;49.474;11.106;2024-01-30T01:15:57;12.00;;;6.45;;
46355;SDS011;32066;49.474;11.106;2024-01-30T01:18:29;12.00;;;6.57;;
46355;SDS011;32066;49.474;11.106;2024-01-30T01:20:57;13.45;;;6.28;;
46355;SDS011;32066;49.474;11.106;2024-01-30T01:23:28;11.95;;;6.43;;
46355;SDS011;32066;49.474;11.106;2024-01-30T01:25:56;11.50;;;6.00;;
46355;SDS011;32066;49.474;11.106;2024-01-30T01:28:26;13.27;;;6.53;;
46355;SDS011;32066;49.474;11.106;2024-01-30T01:30:54;11.20;;;6.25;;
46355;SDS011;32066;49.474;11.106;2024-01-30T01:33:32;11.65;;;6.20;;
46355;SDS011;32066;49.474;11.106;2024-01-30T01:36:03;10.13;;;5.75;;
46355;SDS011;32066;49.474;11.106;2024-01-30T01:38:32;10.50;;;6.03;;
46355;SDS011;32066;49.474;11.106;2024-01-30T01:41:00;10.43;;;6.10;;
46355;SDS011;32066;49.474;11.106;2024-01-30T01:43:29;11.75;;;6.03;;
46355;SDS011;32066;49.474;11.106;2024-01-30T01:45:58;11.57;;;5.97;;
46355;SDS011;32066;49.474;11.106;2024-01-30T01:48:26;10.77;;;5.75;;
46355;SDS011;32066;49.474;11.106;2024-01-30T01:50:57;9.68;;;5.57;;
46355;SDS011;32066;49.474;11.106;2024-01-30T01:53:27;10.88;;;5.85;;
46355;SDS011;32066;49.474;11.106;2024-01-30T01:55:55;12.25;;;5.63;;
46355;SDS011;32066;49.474;11.106;2024-01-30T01:58:25;14.90;;;5.57;;
46355;SDS011;32066;49.474;11.106;2024-01-30T02:00:56;11.20;;;5.63;;
46355;SDS011;32066;49.474;11.106;2024-01-30T02:03:27;10.65;;;5.20;;
46355;SDS011;32066;49.474;11.106;2024-01-30T02:05:58;10.75;;;5.25;;
46355;SDS011;32066;49.474;11.106;2024-01-30T02:08:27;11.52;;;5.18;;
46355;SDS011;32066;49.474;11.106;2024-01-30T02:10:56;10.77;;;5.75;;
46355;SDS011;32066;49.474;11.106;2024-01-30T02:13:25;10.73;;;5.13;;
46355;SDS011;32066;49.474;11.106;2024-01-30T02:15:53;11.73;;;5.55;;
46355;SDS011;32066;49.474;11.106;2024-01-30T02:18:22;10.50;;;5.20;;
46355;SDS011;32066;49.474;11.106;2024-01-30T02:20:51;9.02;;;5.00;;
46355;SDS011;32066;49.474;11.106;2024-01-30T02:23:24;8.25;;;5.13;;
46355;SDS011;32066;49.474;11.106;2024-01-30T02:25:53;9.95;;;5.22;;
46355;SDS011;32066;49.474;11.106;2024-01-30T02:28:22;9.02;;;5.03;;
46355;SDS011;32066;49.474;11.106;2024-01-30T02:30:50;11.00;;;5.47;;
46355;SDS011;32066;49.474;11.106;2024-01-30T02:33:19;10.93;;;5.32;;
46355;SDS011;32066;49.474;11.106;2024-01-30T02:35:48;9.55;;;5.65;;
46355;SDS011;32066;49.474;11.106;2024-01-30T02:38:16;10.20;;;5.63;;
46355;SDS011;32066;49.474;11.106;2024-01-30T02:40:48;10.40;;;5.47;;
46355;SDS011;32066;49.474;11.106;2024-01-30T02:43:16;10.15;;;5.57;;
46355;SDS011;32066;49.474;11.106;2024-01-30T02:45:45;10.00;;;5.40;;
46355;SDS011;32066;49.474;11.106;2024-01-30T02:48:14;11.02;;;5.50;;
46355;SDS011;32066;49.474;11.106;2024-01-30T02:50:42;9.63;;;5.43;;
46355;SDS011;32066;49.474;11.106;2024-01-30T02:53:12;10.65;;;5.45;;
46355;SDS011;32066;49.474;11.106;2024-01-30T02:55:40;11.45;;;5.97;;
46355;SDS011;32066;49.474;11.106;2024-01-30T02:58:12;10.73;;;5.78;;
46355;SDS011;32066;49.474;11.106;2024-01-30T03:00:40;9.77;;;5.35;;
46355;SDS011;32066;49.474;11.106;2024-01-30T03:03:09;15.93;;;5.90;;
46355;SDS011;32066;49.474;11.106;2024-01-30T03:05:37;9.93;;;5.85;;
46355;SDS011;32066;49.474;11.106;2024-01-30T03:08:06;11.07;;;5.45;;
46355;SDS011;32066;49.474;11.106;2024-01-30T03:10:35;13.65;;;5.80;;
46355;SDS011;32066;49.474;11.106;2024-01-30T03:13:04;11.05;;;5.57;;
46355;SDS011;32066;49.474;11.106;2024-01-30T03:15:35;12.15;;;5.72;;
46355;SDS011;32066;49.474;11.106;2024-01-30T03:18:04;11.63;;;5.80;;
46355;SDS011;32066;49.474;11.106;2024-01-30T03:20:34;12.18;;;5.95;;
46355;SDS011;32066;49.474;11.106;2024-01-30T03:23:02;10.88;;;5.32;;
46355;SDS011;32066;49.474;11.106;2024-01-30T03:25:31;10.38;;;5.30;;
46355;SDS011;32066;49.474;11.106;2024-01-30T03:28:00;10.38;;;5.32;;
46355;SDS011;32066;49.474;11.106;2024-01-30T03:30:28;13.55;;;5.70;;
46355;SDS011;32066;49.474;11.106;2024-01-30T03:33:00;11.32;;;5.63;;
46355;SDS011;32066;49.474;11.106;2024-01-30T03:35:28;13.65;;;6.13;;
46355;SDS011;32066;49.474;11.106;2024-01-30T03:37:57;13.25;;;6.20;;
46355;SDS011;32066;49.474;11.106;2024-01-30T03:40:26;12.50;;;5.72;;
46355;SDS011;32066;49.474;11.106;2024-01-30T03:42:54;11.43;;;5.68;;
46355;SDS011;32066;49.474;11.106;2024-01-30T03:45:23;9.85;;;5.20;;
46355;SDS011;32066;49.474;11.106;2024-01-30T03:47:51;10.40;;;5.30;;
46355;SDS011;32066;49.474;11.106;2024-01-30T03:50:23;11.43;;;5.57;;
46355;SDS011;32066;49.474;11.106;2024-01-30T03:52:51;11.65;;;6.65;;
46355;SDS011;32066;49.474;11.106;2024-01-30T03:55:20;11.73;;;5.68;;
46355;SDS011;32066;49.474;11.106;2024-01-30T03:57:48;12.25;;;5.63;;
46355;SDS011;32066;49.474;11.106;2024-01-30T04:00:17;11.40;;;5.63;;
46355;SDS011;32066;49.474;11.106;2024-01-30T04:02:46;11.07;;;5.35;;
46355;SDS011;32066;49.474;11.106;2024-01-30T04:05:16;12.07;;;6.05;;
46355;SDS011;32066;49.474;11.106;2024-01-30T04:07:47;12.18;;;6.10;;
46355;SDS011;32066;49.474;11.106;2024-01-30T04:10:16;10.27;;;5.53;;
46355;SDS011;32066;49.474;11.106;2024-01-30T04:12:44;10.25;;;5.07;;
46355;SDS011;32066;49.474;11.106;2024-01-30T04:15:13;11.07;;;6.03;;
46355;SDS011;32066;49.474;11.106;2024-01-30T04:17:42;12.38;;;6.03;;
46355;SDS011;32066;49.474;11.106;2024-01-30T04:20:13;14.52;;;6.18;;
46355;SDS011;32066;49.474;11.106;2024-01-30T04:22:42;12.98;;;5.75;;
46355;SDS011;32066;49.474;11.106;2024-01-30T04:25:14;11.75;;;6.05;;
46355;SDS011;32066;49.474;11.106;2024-01-30T04:27:42;12.35;;;6.35;;
46355;SDS011;32066;49.474;11.106;2024-01-30T04:30:11;11.32;;;6.03;;
46355;SDS011;32066;49.474;11.106;2024-01-30T04:32:40;13.77;;;6.55;;
46355;SDS011;32066;49.474;11.106;2024-01-30T04:35:09;10.52;;;6.00;;
46355;SDS011;32066;49.474;11.106;2024-01-30T04:37:38;13.40;;;6.45;;
46355;SDS011;32066;49.474;11.106;2024-01-30T04:40:07;10.68;;;5.82;;
46355;SDS011;32066;49.474;11.106;2024-01-30T04:42:38;11.05;;;5.72;;
46355;SDS011;32066;49.474;11.106;2024-01-30T04:45:07;13.52;;;6.00;;
46355;SDS011;32066;49.474;11.106;2024-01-30T04:47:36;13.02;;;6.00;;
46355;SDS011;32066;49.474;11.106;2024-01-30T04:50:06;13.88;;;5.72;;
46355;SDS011;32066;49.474;11.106;2024-01-30T04:52:35;10.38;;;5.47;;
46355;SDS011;32066;49.474;11.106;2024-01-30T04:55:04;10.50;;;5.28;;
46355;SDS011;32066;49.474;11.106;2024-01-30T04:57:39;10.82;;;5.35;;
46355;SDS011;32066;49.474;11.106;2024-01-30T05:00:09;12.00;;;5.55;;
46355;SDS011;32066;49.474;11.106;2024-01-30T05:02:38;11.95;;;5.68;;
46355;SDS011;32066;49.474;11.106;2024-01-30T05:05:07;9.75;;;5.70;;
46355;SDS011;32066;49.474;11.106;2024-01-30T05:07:36;12.13;;;5.70;;
46355;SDS011;32066;49.474;11.106;2024-01-30T05:10:05;11.00;;;5.60;;
46355;SDS011;32066;49.474;11.106;2024-01-30T05:12:34;11.90;;;5.95;;
46355;SDS011;32066;49.474;11.106;2024-01-30T05:15:05;12.05;;;5.65;;
46355;SDS011;32066;49.474;11.106;2024-01-30T05:17:35;9.88;;;5.50;;
46355;SDS011;32066;49.474;11.106;2024-01-30T05:20:04;12.02;;;5.72;;
46355;SDS011;32066;49.474;11.106;2024-01-30T05:22:35;14.75;;;6.03;;
46355;SDS011;32066;49.474;11.106;2024-01-30T05:25:10;11.35;;;6.18;;
46355;SDS011;32066;49.474;11.106;2024-01-30T05:27:38;10.77;;;5.55;;
46355;SDS011;32066;49.474;11.106;2024-01-30T05:30:10;11.13;;;6.03;;
46355;SDS011;32066;49.474;11.106;2024-01-30T05:32:39;10.88;;;6.05;;
46355;SDS011;32066;49.474;11.106;2024-01-30T05:35:08;13.07;;;6.47;;
46355;SDS011;32066;49.474;11.106;2024-01-30T05:37:36;11.40;;;6.28;;
46355;SDS011;32066;49.474;11.106;2024-01-30T05:40:05;10.50;;;5.90;;
46355;SDS011;32066;49.474;11.106;2024-01-30T05:42:35;15.65;;;6.55;;
46355;SDS011;32066;49.474;11.106;2024-01-30T05:45:04;12.32;;;6.22;;
46355;SDS011;32066;49.474;11.106;2024-01-30T05:47:37;13.60;;;6.03;;
46355;SDS011;32066;49.474;11.106;2024-01-30T05:50:06;10.95;;;5.95;;
46355;SDS011;32066;49.474;11.106;2024-01-30T05:52:35;11.55;;;6.65;;
46355;SDS011;32066;49.474;11.106;2024-01-30T05:55:04;12.02;;;6.10;;
46355;SDS011;32066;49.474;11.106;2024-01-30T05:57:32;13.40;;;6.07;;
46355;SDS011;32066;49.474;11.106;2024-01-30T06:00:02;13.68;;;6.10;;
46355;SDS011;32066;49.474;11.106;2024-01-30T06:02:32;14.32;;;6.05;;
46355;SDS011;32066;49.474;11.106;2024-01-30T06:05:04;15.32;;;6.57;;
46355;SDS011;32066;49.474;11.106;2024-01-30T06:07:32;16.77;;;7.10;;
46355;SDS011;32066;49.474;11.106;2024-01-30T06:10:01;19.52;;;7.53;;
46355;SDS011;32066;49.474;11.106;2024-01-30T06:12:30;13.73;;;6.85;;
46355;SDS011;32066;49.474;11.106;2024-01-30T06:14:59;13.68;;;6.93;;
46355;SDS011;32066;49.474;11.106;2024-01-30T06:17:28;13.38;;;6.97;;
46355;SDS011;32066;49.474;11.106;2024-01-30T06:19:56;14.15;;;7.88;;
46355;SDS011;32066;49.474;11.106;2024-01-30T06:22:28;14.68;;;7.40;;
46355;SDS011;32066;49.474;11.106;2024-01-30T06:24:56;14.73;;;7.07;;
46355;SDS011;32066;49.474;11.106;2024-01-30T06:27:25;16.42;;;7.57;;
46355;SDS011;32066;49.474;11.106;2024-01-30T06:29:54;13.70;;;6.97;;
46355;SDS011;32066;49.474;11.106;2024-01-30T06:32:23;14.35;;;7.18;;
46355;SDS011;32066;49.474;11.106;2024-01-30T06:34:52;15.23;;;7.82;;
46355;SDS011;32066;49.474;11.106;2024-01-30T06:37:21;15.23;;;8.15;;
46355;SDS011;32066;49.474;11.106;2024-01-30T06:39:52;14.45;;;8.35;;
46355;SDS011;32066;49.474;11.106;2024-01-30T06:42:21;16.13;;;7.85;;
46355;SDS011;32066;49.474;11.106;2024-01-30T06:44:50;13.15;;;7.55;;
46355;SDS011;32066;49.474;11.106;2024-01-30T06:47:18;14.15;;;8.13;;
46355;SDS011;32066;49.474;11.106;2024-01-30T06:49:47;15.63;;;7.22;;
46355;SDS011;32066;49.474;11.106;2024-01-30T06:52:17;15.95;;;8.25;;
46355;SDS011;32066;49.474;11.106;2024-01-30T06:54:46;13.55;;;8.25;;
46355;SDS011;32066;49.474;11.106;2024-01-30T06:57:17;14.90;;;8.38;;
46355;SDS011;32066;49.474;11.106;2024-01-30T06:59:46;17.73;;;8.68;;
46355;SDS011;32066;49.474;11.106;2024-01-30T07:02:15;15.23;;;8.60;;
46355;SDS011;32066;49.474;11.106;2024-01-30T07:04:43;16.10;;;9.07;;
46355;SDS011;32066;49.474;11.106;2024-01-30T07:07:12;16.58;;;8.63;;
46355;SDS011;32066;49.474;11.106;2024-01-30T07:09:41;18.50;;;9.23;;
46355;SDS011;32066;49.474;11.106;2024-01-30T07:12:10;19.15;;;9.45;;
46355;SDS011;32066;49.474;11.106;2024-01-30T07:14:41;20.35;;;9.35;;
46355;SDS011;32066;49.474;11.106;2024-01-30T07:17:09;20.17;;;10.63;;
46355;SDS011;32066;49.474;11.106;2024-01-30T07:19:38;17.23;;;9.70;;
46355;SDS011;32066;49.474;11.106;2024-01-30T07:22:07;17.20;;;9.82;;
46355;SDS011;32066;49.474;11.106;2024-01-30T07:24:36;21.92;;;10.18;;
46355;SDS011;32066;49.474;11.106;2024-01-30T07:27:10;17.13;;;9.38;;
46355;SDS011;32066;49.474;11.106;2024-01-30T07:29:41;20.98;;;10.63;;
46355;SDS011;32066;49.474;11.106;2024-01-30T07:32:10;20.50;;;10.90;;
46355;SDS011;32066;49.474;11.106;2024-01-30T07:34:38;19.77;;;10.65;;
46355;SDS011;32066;49.474;11.106;2024-01-30T07:37:07;18.58;;;10.15;;
46355;SDS011;32066;49.474;11.106;2024-01-30T07:39:38;19.60;;;11.13;;
46355;SDS011;32066;49.474;11.106;2024-01-30T07:42:06;17.92;;;10.80;;
46355;SDS011;32066;49.474;11.106;2024-01-30T07:44:35;16.30;;;9.48;;
46355;SDS011;32066;49.474;11.106;2024-01-30T07:47:07;19.30;;;9.95;;
46355;SDS011;32066;49.474;11.106;2024-01-30T07:49:35;18.67;;;10.30;;
46355;SDS011;32066;49.474;11.106;2024-01-30T07:52:04;19.08;;;11.07;;
46355;SDS011;32066;49.474;11.106;2024-01-30T07:54:33;20.33;;;11.38;;
46355;SDS011;32066;49.474;11.106;2024-01-30T07:57:04;23.38;;;11.82;;
46355;SDS011;32066;49.474;11.106;2024-01-30T07:59:33;20.27;;;11.57;;
46355;SDS011;32066;49.474;11.106;2024-01-30T08:02:02;18.75;;;10.88;;
46355;SDS011;32066;49.474;11.106;2024-01-30T08:04:34;20.58;;;10.80;;
46355;SDS011;32066;49.474;11.106;2024-01-30T08:07:03;18.67;;;10.85;;
46355;SDS011;32066;49.474;11.106;2024-01-30T08:09:32;17.63;;;11.35;;
46355;SDS011;32066;49.474;11.106;2024-01-30T08:12:00;20.75;;;11.10;;
46355;SDS011;32066;49.474;11.106;2024-01-30T08:14:29;19.73;;;11.18;;
46355;SDS011;32066;49.474;11.106;2024-01-30T08:16:58;20.58;;;10.93;;
46355;SDS011;32066;49.474;11.106;2024-01-30T08:19:26;22.33;;;11.35;;
46355;SDS011;32066;49.474;11.106;2024-01-30T08:21:57;19.25;;;11.35;;
46355;SDS011;32066;49.474;11.106;2024-01-30T08:24:26;17.90;;;11.35;;
46355;SDS011;32066;49.474;11.106;2024-01-30T08:26:55;25.23;;;11.35;;
46355;SDS011;32066;49.474;11.106;2024-01-30T08:29:24;17.33;;;11.00;;
46355;SDS011;32066;49.474;11.106;2024-01-30T08:31:52;20.10;;;11.70;;
46355;SDS011;32066;49.474;11.106;2024-01-30T08:34:21;24.10;;;11.80;;
46355;SDS011;32066;49.474;11.106;2024-01-30T08:36:50;18.38;;;11.60;;
46355;SDS011;32066;49.474;11.106;2024-01-30T08:39:21;19.63;;;11.98;;
46355;SDS011;32066;49.474;11.106;2024-01-30T08:41:50;26.60;;;12.65;;
46355;SDS011;32066;49.474;11.106;2024-01-30T08:44:18;21.60;;;12.00;;
46355;SDS011;32066;49.474;11.106;2024-01-30T08:46:47;25.70;;;13.25;;
46355;SDS011;32066;49.474;11.106;2024-01-30T08:49:16;23.27;;;13.23;;
46355;SDS011;32066;49.474;11.106;2024-01-30T08:51:45;34.35;;;13.77;;
46355;SDS011;32066;49.474;11.106;2024-01-30T08:54:14;25.42;;;12.70;;
46355;SDS011;32066;49.474;11.106;2024-01-30T08:56:45;23.00;;;11.93;;
46355;SDS011;32066;49.474;11.106;2024-01-30T08:59:14;20.77;;;12.05;;
46355;SDS011;32066;49.474;11.106;2024-01-30T09:01:42;19.67;;;11.75;;
46355;SDS011;32066;49.474;11.106;2024-01-30T09:04:12;19.52;;;12.27;;
46355;SDS011;32066;49.474;11.106;2024-01-30T09:06:40;24.40;;;13.20;;
46355;SDS011;32066;49.474;11.106;2024-01-30T09:09:09;22.60;;;12.77;;
46355;SDS011;32066;49.474;11.106;2024-01-30T09:11:38;22.60;;;14.20;;
46355;SDS011;32066;49.474;11.106;2024-01-30T09:14:09;24.77;;;14.32;;
46355;SDS011;32066;49.474;11.106;2024-01-30T09:16:38;22.30;;;13.10;;
46355;SDS011;32066;49.474;11.106;2024-01-30T09:19:06;22.13;;;13.48;;
46355;SDS011;32066;49.474;11.106;2024-01-30T09:21:35;20.60;;;13.32;;
46355;SDS011;32066;49.474;11.106;2024-01-30T09:24:04;18.25;;;12.45;;
46355;SDS011;32066;49.474;11.106;2024-01-30T09:26:33;22.98;;;13.65;;
46355;SDS011;32066;49.474;11.106;2024-01-30T09:29:02;21.40;;;12.75;;
46355;SDS011;32066;49.474;11.106;2024-01-30T09:31:33;20.58;;;13.15;;
46355;SDS011;32066;49.474;11.106;2024-01-30T09:34:02;19.10;;;12.30;;
46355;SDS011;32066;49.474;11.106;2024-01-30T09:36:31;18.40;;;12.75;;
46355;SDS011;32066;49.474;11.106;2024-01-30T09:38:58;22.52;;;12.65;;
46355;SDS011;32066;49.474;11.106;2024-01-30T09:41:26;23.13;;;13.10;;
46355;SDS011;32066;49.474;11.106;2024-01-30T09:43:57;21.42;;;12.77;;
46355;SDS011;32066;49.474;11.106;2024-01-30T09:46:27;23.92;;;12.48;;
46355;SDS011;32066;49.474;11.106;2024-01-30T09:49:01;21.38;;;13.40;;
46355;SDS011;32066;49.474;11.106;2024-01-30T09:51:28;23.45;;;13.35;;
46355;SDS011;32066;49.474;11.106;2024-01-30T09:53:58;20.50;;;13.35;;
46355;SDS011;32066;49.474;11.106;2024-01-30T09:56:27;23.67;;;13.52;;
46355;SDS011;32066;49.474;11.106;2024-01-30T09:58:55;22.25;;;14.30;;
46355;SDS011;32066;49.474;11.106;2024-01-30T10:01:24;23.02;;;14.10;;
46355;SDS011;32066;49.474;11.106;2024-01-30T10:03:55;23.33;;;13.98;;
46355;SDS011;32066;49.474;11.106;2024-01-30T10:06:27;22.90;;;13.98;;
46355;SDS011;32066;49.474;11.106;2024-01-30T10:08:56;20.98;;;13.02;;
46355;SDS011;32066;49.474;11.106;2024-01-30T10:11:24;19.00;;;12.63;;
46355;SDS011;32066;49.474;11.106;2024-01-30T10:13:53;22.92;;;14.48;;
46355;SDS011;32066;49.474;11.106;2024-01-30T10:16:22;19.40;;;12.60;;
46355;SDS011;32066;49.474;11.106;2024-01-30T10:18:51;21.45;;;13.32;;
46355;SDS011;32066;49.474;11.106;2024-01-30T10:21:20;22.85;;;13.85;;
46355;SDS011;32066;49.474;11.106;2024-01-30T10:23:52;20.17;;;13.10;;
46355;SDS011;32066;49.474;11.106;2024-01-30T10:26:21;21.50;;;13.45;;
46355;SDS011;32066;49.474;11.106;2024-01-30T10:28:50;22.20;;;13.52;;
46355;SDS011;32066;49.474;11.106;2024-01-30T10:31:18;27.67;;;13.75;;
46355;SDS011;32066;49.474;11.106;2024-01-30T10:33:48;22.80;;;13.73;;
46355;SDS011;32066;49.474;11.106;2024-01-30T10:36:16;22.92;;;14.43;;
46355;SDS011;32066;49.474;11.106;2024-01-30T10:38:47;23.13;;;14.32;;
46355;SDS011;32066;49.474;11.106;2024-01-30T10:41:25;21.67;;;14.07;;
46355;SDS011;32066;49.474;11.106;2024-01-30T10:43:57;24.45;;;13.82;;
46355;SDS011;32066;49.474;11.106;2024-01-30T10:46:31;28.52;;;14.20;;
46355;SDS011;32066;49.474;11.106;2024-01-30T10:49:03;22.27;;;14.07;;
46355;SDS011;32066;49.474;11.106;2024-01-30T10:51:33;22.90;;;13.55;;
46355;SDS011;32066;49.474;11.106;2024-01-30T10:54:07;24.83;;;13.93;;
46355;SDS011;32066;49.474;11.106;2024-01-30T10:56:37;24.80;;;14.43;;
46355;SDS011;32066;49.474;11.106;2024-01-30T10:59:08;20.90;;;13.75;;
46355;SDS011;32066;49.474;11.106;2024-01-30T11:01:38;22.38;;;14.15;;
46355;SDS011;32066;49.474;11.106;2024-01-30T11:04:07;20.20;;;12.77;;
46355;SDS011;32066;49.474;11.106;2024-01-30T11:06:40;23.23;;;13.70;;
46355;SDS011;32066;49.474;11.106;2024-01-30T11:09:12;23.05;;;14.05;;
46355;SDS011;32066;49.474;11.106;2024-01-30T11:11:50;22.33;;;13.45;;
46355;SDS011;32066;49.474;11.106;2024-01-30T11:14:22;23.00;;;13.30;;
46355;SDS011;32066;49.474;11.106;2024-01-30T11:16:52;19.27;;;13.02;;
46355;SDS011;32066;49.474;11.106;2024-01-30T11:19:24;18.65;;;12.75;;
46355;SDS011;32066;49.474;11.106;2024-01-30T11:21:53;20.92;;;12.85;;
46355;SDS011;32066;49.474;11.106;2024-01-30T11:24:25;23.65;;;12.57;;
46355;SDS011;32066;49.474;11.106;2024-01-30T11:26:55;19.63;;;12.90;;
46355;SDS011;32066;49.474;11.106;2024-01-30T11:29:24;18.27;;;13.35;;
46355;SDS011;32066;49.474;11.106;2024-01-30T11:31:53;24.52;;;13.93;;
46355;SDS011;32066;49.474;11.106;2024-01-30T11:34:22;21.35;;;13.32;;
46355;SDS011;32066;49.474;11.106;2024-01-30T11:36:51;20.23;;;14.35;;
46355;SDS011;32066;49.474;11.106;2024-01-30T11:39:27;24.15;;;13.40;;
46355;SDS011;32066;49.474;11.106;2024-01-30T11:41:57;22.05;;;13.02;;
46355;SDS011;32066;49.474;11.106;2024-01-30T11:44:30;21.42;;;12.80;;
46355;SDS011;32066;49.474;11.106;2024-01-30T11:46:58;23.05;;;12.55;;
46355;SDS011;32066;49.474;11.106;2024-01-30T11:49:28;21.60;;;11.93;;
46355;SDS011;32066;49.474;11.106;2024-01-30T11:51:57;20.95;;;12.40;;
46355;SDS011;32066;49.474;11.106;2024-01-30T11:54:29;21.13;;;11.60;;
46355;SDS011;32066;49.474;11.106;2024-01-30T11:56:57;20.83;;;11.93;;
46355;SDS011;32066;49.474;11.106;2024-01-30T11:59:26;16.55;;;11.27;;
46355;SDS011;32066;49.474;11.106;2024-01-30T12:01:55;17.45;;;11.85;;
46355;SDS011;32066;49.474;11.106;2024-01-30T12:04:23;22.40;;;12.20;;
46355;SDS011;32066;49.474;11.106;2024-01-30T12:06:56;17.90;;;11.48;;
46355;SDS011;32066;49.474;11.106;2024-01-30T12:09:25;20.10;;;11.23;;
46355;SDS011;32066;49.474;11.106;2024-01-30T12:11:56;17.85;;;11.35;;
46355;SDS011;32066;49.474;11.106;2024-01-30T12:14:25;18.25;;;11.85;;
46355;SDS011;32066;49.474;11.106;2024-01-30T12:16:54;16.90;;;11.10;;
46355;SDS011;32066;49.474;11.106;2024-01-30T12:19:23;18.17;;;11.85;;
46355;SDS011;32066;49.474;11.106;2024-01-30T12:21:55;23.05;;;11.35;;
46355;SDS011;32066;49.474;11.106;2024-01-30T12:24:24;16.75;;;10.88;;
46355;SDS011;32066;49.474;11.106;2024-01-30T12:26:59;16.58;;;10.48;;
46355;SDS011;32066;49.474;11.106;2024-01-30T12:29:31;19.10;;;11.57;;
46355;SDS011;32066;49.474;11.106;2024-01-30T12:32:00;19.58;;;10.90;;
46355;SDS011;32066;49.474;11.106;2024-01-30T12:34:28;19.85;;;10.98;;
46355;SDS011;32066;49.474;11.106;2024-01-30T12:36:57;18.92;;;11.15;;
46355;SDS011;32066;49.474;11.106;2024-01-30T12:39:26;19.38;;;10.68;;
46355;SDS011;32066;49.474;11.106;2024-01-30T12:41:58;17.08;;;11.18;;
46355;SDS011;32066;49.474;11.106;2024-01-30T12:44:28;16.52;;;11.02;;
46355;SDS011;32066;49.474;11.106;2024-01-30T12:46:57;21.70;;;11.65;;
46355;SDS011;32066;49.474;11.106;2024-01-30T12:49:25;16.73;;;11.00;;
46355;SDS011;32066;49.474;11.106;2024-01-30T12:51:54;16.58;;;10.88;;
46355;SDS011;32066;49.474;11.106;2024-01-30T12:54:23;18.10;;;10.85;;
46355;SDS011;32066;49.474;11.106;2024-01-30T12:56:51;18.38;;;11.23;;
46355;SDS011;32066;49.474;11.106;2024-01-30T12:59:24;18.70;;;10.93;;
46355;SDS011;32066;49.474;11.106;2024-01-30T13:01:52;16.60;;;10.82;;
46355;SDS011;32066;49.474;11.106;2024-01-30T13:04:21;19.00;;;11.23;;
46355;SDS011;32066;49.474;11.106;2024-01-30T13:06:50;16.92;;;11.07;;
46355;SDS011;32066;49.474;11.106;2024-01-30T13:09:19;18.48;;;10.85;;
46355;SDS011;32066;49.474;11.106;2024-01-30T13:11:48;17.50;;;10.98;;
46355;SDS011;32066;49.474;11.106;2024-01-30T13:14:17;17.08;;;10.45;;
46355;SDS011;32066;49.474;11.106;2024-01-30T13:16:49;15.07;;;9.38;;
46355;SDS011;32066;49.474;11.106;2024-01-30T13:19:17;15.80;;;10.45;;
46355;SDS011;32066;49.474;11.106;2024-01-30T13:21:46;17.88;;;10.38;;
46355;SDS011;32066;49.474;11.106;2024-01-30T13:24:15;16.88;;;10.05;;
46355;SDS011;32066;49.474;11.106;2024-01-30T13:26:46;18.77;;;10.40;;
46355;SDS011;32066;49.474;11.106;2024-01-30T13:29:15;17.80;;;10.43;;
46355;SDS011;32066;49.474;11.106;2024-01-30T13:31:43;16.77;;;9.93;;
46355;SDS011;32066;49.474;11.106;2024-01-30T13:34:15;18.30;;;10.63;;
46355;SDS011;32066;49.474;11.106;2024-01-30T13:36:43;16.67;;;11.00;;
46355;SDS011;32066;49.474;11.106;2024-01-30T13:39:13;19.50;;;10.50;;
46355;SDS011;32066;49.474;11.106;2024-01-30T13:41:42;18.58;;;10.95;;
46355;SDS011;32066;49.474;11.106;2024-01-30T13:44:11;17.95;;;11.50;;
46355;SDS011;32066;49.474;11.106;2024-01-30T13:46:41;20.33;;;11.50;;
46355;SDS011;32066;49.474;11.106;2024-01-30T13:49:11;28.65;;;12.10;;
46355;SDS011;32066;49.474;11.106;2024-01-30T13:51:42;18.85;;;12.25;;
46355;SDS011;32066;49.474;11.106;2024-01-30T13:54:11;19.02;;;11.65;;
46355;SDS011;32066;49.474;11.106;2024-01-30T13:56:40;22.35;;;12.82;;
46355;SDS011;32066;49.474;11.106;2024-01-30T13:59:09;20.00;;;11.38;;
46355;SDS011;32066;49.474;11.106;2024-01-30T14:01:38;20.13;;;11.88;;
46355;SDS011;32066;49.474;11.106;2024-01-30T14:04:06;19.15;;;11.93;;
46355;SDS011;32066;49.474;11.106;2024-01-30T14:06:36;18.35;;;11.48;;
46355;SDS011;32066;49.474;11.106;2024-01-30T14:09:08;18.67;;;12.02;;
46355;SDS011;32066;49.474;11.106;2024-01-30T14:11:36;19.35;;;12.73;;
46355;SDS011;32066;49.474;11.106;2024-01-30T14:14:05;22.20;;;12.90;;
46355;SDS011;32066;49.474;11.106;2024-01-30T14:16:33;23.80;;;11.75;;
46355;SDS011;32066;49.474;11.106;2024-01-30T14:19:02;22.48;;;12.55;;
46355;SDS011;32066;49.474;11.106;2024-01-30T14:21:31;24.60;;;13.05;;
46355;SDS011;32066;49.474;11.106;2024-01-30T14:24:00;21.38;;;12.27;;
46355;SDS011;32066;49.474;11.106;2024-01-30T14:26:31;17.35;;;11.88;;
46355;SDS011;32066;49.474;11.106;2024-01-30T14:29:00;19.00;;;11.82;;